sensor_id;sensor_type;location;lat;lon;timestamp;P1;durP1;ratioP1;P2;durP2;ratioP2
3589;SDS011;1809;48.470;9.226;2024-02-21T00:01:51;10.80;;;4.33;;
3589;SDS011;1809;48.470;9.226;2024-02-21T00:04:17;13.37;;;4.67;;
3589;SDS011;1809;48.470;9.226;2024-02-21T00:06:42;6.53;;;4.43;;
3589;SDS011;1809;48.470;9.226;2024-02-21T00:09:07;7.73;;;4.37;;
3589;SDS011;1809;48.470;9.226;2024-02-21T00:11:34;9.87;;;4.80;;
3589;SDS011;1809;48.470;9.226;2024-02-21T00:14:00;8.20;;;4.23;;
3589;SDS011;1809;48.470;9.226;2024-02-21T00:16:25;6.20;;;4.10;;
3589;SDS011;1809;48.470;9.226;2024-02-21T00:18:51;6.07;;;4.07;;
3589;SDS011;1809;48.470;9.226;2024-02-21T00:21:16;6.13;;;4.00;;
3589;SDS011;1809;48.470;9.226;2024-02-21T00:23:43;6.43;;;4.57;;
3589;SDS011;1809;48.470;9.226;2024-02-21T00:26:11;10.87;;;4.00;;
3589;SDS011;1809;48.470;9.226;2024-02-21T00:28:39;4.30;;;3.33;;
3589;SDS011;1809;48.470;9.226;2024-02-21T00:31:04;11.17;;;4.47;;
3589;SDS011;1809;48.470;9.226;2024-02-21T00:33:30;8.77;;;4.10;;
3589;SDS011;1809;48.470;9.226;2024-02-21T00:35:55;7.97;;;3.67;;
3589;SDS011;1809;48.470;9.226;2024-02-21T00:38:20;14.53;;;4.20;;
3589;SDS011;1809;48.470;9.226;2024-02-21T00:40:46;5.37;;;3.63;;
3589;SDS011;1809;48.470;9.226;2024-02-21T00:43:11;7.80;;;3.97;;
3589;SDS011;1809;48.470;9.226;2024-02-21T00:45:36;15.93;;;4.83;;
3589;SDS011;1809;48.470;9.226;2024-02-21T00:48:02;12.50;;;4.27;;
3589;SDS011;1809;48.470;9.226;2024-02-21T00:50:27;9.83;;;3.60;;
3589;SDS011;1809;48.470;9.226;2024-02-21T00:52:53;5.00;;;4.00;;
3589;SDS011;1809;48.470;9.226;2024-02-21T00:55:18;10.53;;;3.80;;
3589;SDS011;1809;48.470;9.226;2024-02-21T00:57:43;6.67;;;3.93;;
3589;SDS011;1809;48.470;9.226;2024-02-21T01:00:09;5.60;;;4.30;;
3589;SDS011;1809;48.470;9.226;2024-02-21T01:02:35;10.53;;;3.70;;
3589;SDS011;1809;48.470;9.226;2024-02-21T01:05:00;6.27;;;4.70;;
3589;SDS011;1809;48.470;9.226;2024-02-21T01:07:27;5.03;;;3.30;;
3589;SDS011;1809;48.470;9.226;2024-02-21T01:09:52;9.57;;;3.33;;
3589;SDS011;1809;48.470;9.226;2024-02-21T01:12:17;10.57;;;4.63;;
3589;SDS011;1809;48.470;9.226;2024-02-21T01:14:43;5.70;;;4.10;;
3589;SDS011;1809;48.470;9.226;2024-02-21T01:17:11;7.90;;;4.33;;
3589;SDS011;1809;48.470;9.226;2024-02-21T01:19:36;6.10;;;4.03;;
3589;SDS011;1809;48.470;9.226;2024-02-21T01:22:01;8.40;;;2.57;;
3589;SDS011;1809;48.470;9.226;2024-02-21T01:24:27;9.13;;;3.37;;
3589;SDS011;1809;48.470;9.226;2024-02-21T01:26:52;10.90;;;5.30;;
3589;SDS011;1809;48.470;9.226;2024-02-21T01:29:17;8.33;;;3.40;;
3589;SDS011;1809;48.470;9.226;2024-02-21T01:31:43;11.47;;;4.13;;
3589;SDS011;1809;48.470;9.226;2024-02-21T01:34:08;8.10;;;3.53;;
3589;SDS011;1809;48.470;9.226;2024-02-21T01:36:33;12.63;;;3.53;;
3589;SDS011;1809;48.470;9.226;2024-02-21T01:38:58;8.33;;;4.10;;
3589;SDS011;1809;48.470;9.226;2024-02-21T01:41:24;4.87;;;3.70;;
3589;SDS011;1809;48.470;9.226;2024-02-21T01:43:49;4.97;;;3.43;;
3589;SDS011;1809;48.470;9.226;2024-02-21T01:46:15;4.00;;;3.10;;
3589;SDS011;1809;48.470;9.226;2024-02-21T01:48:40;7.20;;;3.80;;
3589;SDS011;1809;48.470;9.226;2024-02-21T01:51:06;13.00;;;3.40;;
3589;SDS011;1809;48.470;9.226;2024-02-21T01:53:35;6.23;;;3.73;;
3589;SDS011;1809;48.470;9.226;2024-02-21T01:56:03;12.23;;;4.60;;
3589;SDS011;1809;48.470;9.226;2024-02-21T01:58:30;10.10;;;4.87;;
3589;SDS011;1809;48.470;9.226;2024-02-21T02:00:56;6.57;;;3.97;;
3589;SDS011;1809;48.470;9.226;2024-02-21T02:03:22;6.87;;;3.30;;
3589;SDS011;1809;48.470;9.226;2024-02-21T02:05:48;7.80;;;3.43;;
3589;SDS011;1809;48.470;9.226;2024-02-21T02:08:19;6.97;;;3.63;;
3589;SDS011;1809;48.470;9.226;2024-02-21T02:10:47;7.33;;;3.63;;
3589;SDS011;1809;48.470;9.226;2024-02-21T02:13:12;2.90;;;2.70;;
3589;SDS011;1809;48.470;9.226;2024-02-21T02:15:41;5.37;;;2.80;;
3589;SDS011;1809;48.470;9.226;2024-02-21T02:18:07;5.67;;;3.13;;
3589;SDS011;1809;48.470;9.226;2024-02-21T02:20:33;6.50;;;2.97;;
3589;SDS011;1809;48.470;9.226;2024-02-21T02:23:00;3.10;;;2.40;;
3589;SDS011;1809;48.470;9.226;2024-02-21T02:25:32;12.57;;;3.97;;
3589;SDS011;1809;48.470;9.226;2024-02-21T02:27:57;8.90;;;2.97;;
3589;SDS011;1809;48.470;9.226;2024-02-21T02:30:24;3.00;;;2.33;;
3589;SDS011;1809;48.470;9.226;2024-02-21T02:32:49;8.50;;;3.10;;
3589;SDS011;1809;48.470;9.226;2024-02-21T02:35:14;6.90;;;2.87;;
3589;SDS011;1809;48.470;9.226;2024-02-21T02:37:39;5.80;;;2.90;;
3589;SDS011;1809;48.470;9.226;2024-02-21T02:40:06;5.40;;;2.40;;
3589;SDS011;1809;48.470;9.226;2024-02-21T02:42:32;10.53;;;3.00;;
3589;SDS011;1809;48.470;9.226;2024-02-21T02:44:57;5.03;;;2.80;;
3589;SDS011;1809;48.470;9.226;2024-02-21T02:47:22;13.63;;;3.20;;
3589;SDS011;1809;48.470;9.226;2024-02-21T02:49:48;11.00;;;3.10;;
3589;SDS011;1809;48.470;9.226;2024-02-21T02:52:16;9.03;;;3.43;;
3589;SDS011;1809;48.470;9.226;2024-02-21T02:54:44;4.40;;;2.57;;
3589;SDS011;1809;48.470;9.226;2024-02-21T02:57:10;3.67;;;3.33;;
3589;SDS011;1809;48.470;9.226;2024-02-21T02:59:35;6.90;;;2.50;;
3589;SDS011;1809;48.470;9.226;2024-02-21T03:02:01;5.43;;;2.30;;
3589;SDS011;1809;48.470;9.226;2024-02-21T03:04:26;4.30;;;2.47;;
3589;SDS011;1809;48.470;9.226;2024-02-21T03:06:51;4.33;;;2.10;;
3589;SDS011;1809;48.470;9.226;2024-02-21T03:09:16;9.67;;;3.10;;
3589;SDS011;1809;48.470;9.226;2024-02-21T03:11:42;4.70;;;2.33;;
3589;SDS011;1809;48.470;9.226;2024-02-21T03:14:09;12.17;;;2.57;;
3589;SDS011;1809;48.470;9.226;2024-02-21T03:16:34;8.83;;;2.60;;
3589;SDS011;1809;48.470;9.226;2024-02-21T03:19:00;5.83;;;2.67;;
3589;SDS011;1809;48.470;9.226;2024-02-21T03:21:25;8.33;;;3.33;;
3589;SDS011;1809;48.470;9.226;2024-02-21T03:23:50;5.70;;;2.40;;
3589;SDS011;1809;48.470;9.226;2024-02-21T03:26:16;3.63;;;2.93;;
3589;SDS011;1809;48.470;9.226;2024-02-21T03:28:42;9.30;;;2.80;;
3589;SDS011;1809;48.470;9.226;2024-02-21T03:31:11;7.30;;;2.57;;
3589;SDS011;1809;48.470;9.226;2024-02-21T03:33:37;6.47;;;2.53;;
3589;SDS011;1809;48.470;9.226;2024-02-21T03:36:02;9.30;;;2.43;;
3589;SDS011;1809;48.470;9.226;2024-02-21T03:38:28;3.67;;;2.37;;
3589;SDS011;1809;48.470;9.226;2024-02-21T03:40:54;4.30;;;2.20;;
3589;SDS011;1809;48.470;9.226;2024-02-21T03:43:19;5.40;;;2.33;;
3589;SDS011;1809;48.470;9.226;2024-02-21T03:45:44;6.93;;;2.77;;
3589;SDS011;1809;48.470;9.226;2024-02-21T03:48:10;2.60;;;2.00;;
3589;SDS011;1809;48.470;9.226;2024-02-21T03:50:35;4.00;;;1.87;;
3589;SDS011;1809;48.470;9.226;2024-02-21T03:53:00;6.77;;;2.90;;
3589;SDS011;1809;48.470;9.226;2024-02-21T03:55:26;6.27;;;1.90;;
3589;SDS011;1809;48.470;9.226;2024-02-21T03:57:51;6.53;;;1.80;;
3589;SDS011;1809;48.470;9.226;2024-02-21T04:00:16;3.73;;;2.17;;
3589;SDS011;1809;48.470;9.226;2024-02-21T04:02:42;6.70;;;2.23;;
3589;SDS011;1809;48.470;9.226;2024-02-21T04:05:08;11.63;;;2.43;;
3589;SDS011;1809;48.470;9.226;2024-02-21T04:07:36;6.57;;;2.73;;
3589;SDS011;1809;48.470;9.226;2024-02-21T04:10:02;5.80;;;2.07;;
3589;SDS011;1809;48.470;9.226;2024-02-21T04:12:28;2.57;;;1.90;;
3589;SDS011;1809;48.470;9.226;2024-02-21T04:14:53;3.47;;;2.00;;
3589;SDS011;1809;48.470;9.226;2024-02-21T04:17:18;10.03;;;2.00;;
3589;SDS011;1809;48.470;9.226;2024-02-21T04:19:43;8.00;;;2.50;;
3589;SDS011;1809;48.470;9.226;2024-02-21T04:22:09;5.20;;;2.40;;
3589;SDS011;1809;48.470;9.226;2024-02-21T04:24:34;8.13;;;1.90;;
3589;SDS011;1809;48.470;9.226;2024-02-21T04:26:59;6.40;;;2.20;;
3589;SDS011;1809;48.470;9.226;2024-02-21T04:29:25;8.20;;;2.57;;
3589;SDS011;1809;48.470;9.226;2024-02-21T04:31:51;3.67;;;2.77;;
3589;SDS011;1809;48.470;9.226;2024-02-21T04:34:16;9.03;;;2.70;;
3589;SDS011;1809;48.470;9.226;2024-02-21T04:36:41;2.90;;;2.67;;
3589;SDS011;1809;48.470;9.226;2024-02-21T04:39:08;4.80;;;2.27;;
3589;SDS011;1809;48.470;9.226;2024-02-21T04:41:33;15.70;;;2.93;;
3589;SDS011;1809;48.470;9.226;2024-02-21T04:43:59;4.77;;;2.67;;
3589;SDS011;1809;48.470;9.226;2024-02-21T04:46:24;7.97;;;2.83;;
3589;SDS011;1809;48.470;9.226;2024-02-21T04:48:50;10.10;;;2.63;;
3589;SDS011;1809;48.470;9.226;2024-02-21T04:51:15;7.90;;;2.20;;
3589;SDS011;1809;48.470;9.226;2024-02-21T04:53:40;10.40;;;3.17;;
3589;SDS011;1809;48.470;9.226;2024-02-21T04:56:06;10.33;;;2.87;;
3589;SDS011;1809;48.470;9.226;2024-02-21T04:58:31;6.77;;;2.40;;
3589;SDS011;1809;48.470;9.226;2024-02-21T05:00:56;6.50;;;2.30;;
3589;SDS011;1809;48.470;9.226;2024-02-21T05:03:23;4.00;;;2.20;;
3589;SDS011;1809;48.470;9.226;2024-02-21T05:05:48;8.20;;;2.80;;
3589;SDS011;1809;48.470;9.226;2024-02-21T05:08:13;10.40;;;3.00;;
3589;SDS011;1809;48.470;9.226;2024-02-21T05:10:39;10.90;;;2.50;;
3589;SDS011;1809;48.470;9.226;2024-02-21T05:13:04;6.40;;;1.40;;
3589;SDS011;1809;48.470;9.226;2024-02-21T05:15:29;3.23;;;1.70;;
3589;SDS011;1809;48.470;9.226;2024-02-21T05:17:55;6.33;;;2.60;;
3589;SDS011;1809;48.470;9.226;2024-02-21T05:20:20;3.90;;;2.00;;
3589;SDS011;1809;48.470;9.226;2024-02-21T05:22:45;5.70;;;2.43;;
3589;SDS011;1809;48.470;9.226;2024-02-21T05:25:11;5.00;;;2.23;;
3589;SDS011;1809;48.470;9.226;2024-02-21T05:27:36;3.27;;;2.43;;
3589;SDS011;1809;48.470;9.226;2024-02-21T05:30:03;3.67;;;2.13;;
3589;SDS011;1809;48.470;9.226;2024-02-21T05:32:31;4.77;;;2.30;;
3589;SDS011;1809;48.470;9.226;2024-02-21T05:34:56;5.90;;;3.13;;
3589;SDS011;1809;48.470;9.226;2024-02-21T05:37:23;7.87;;;2.87;;
3589;SDS011;1809;48.470;9.226;2024-02-21T05:39:48;3.10;;;2.07;;
3589;SDS011;1809;48.470;9.226;2024-02-21T05:42:14;6.57;;;3.97;;
3589;SDS011;1809;48.470;9.226;2024-02-21T05:44:39;7.90;;;4.63;;
3589;SDS011;1809;48.470;9.226;2024-02-21T05:47:04;11.10;;;4.80;;
3589;SDS011;1809;48.470;9.226;2024-02-21T05:49:30;6.30;;;4.20;;
3589;SDS011;1809;48.470;9.226;2024-02-21T05:51:55;9.30;;;4.60;;
3589;SDS011;1809;48.470;9.226;2024-02-21T05:54:20;11.23;;;4.73;;
3589;SDS011;1809;48.470;9.226;2024-02-21T05:56:46;15.40;;;5.33;;
3589;SDS011;1809;48.470;9.226;2024-02-21T05:59:12;16.23;;;5.50;;
3589;SDS011;1809;48.470;9.226;2024-02-21T06:01:37;16.43;;;5.70;;
3589;SDS011;1809;48.470;9.226;2024-02-21T06:04:02;9.83;;;5.43;;
3589;SDS011;1809;48.470;9.226;2024-02-21T06:06:29;5.83;;;5.20;;
3589;SDS011;1809;48.470;9.226;2024-02-21T06:08:54;16.63;;;5.50;;
3589;SDS011;1809;48.470;9.226;2024-02-21T06:11:20;16.93;;;4.70;;
3589;SDS011;1809;48.470;9.226;2024-02-21T06:13:46;14.43;;;6.10;;
3589;SDS011;1809;48.470;9.226;2024-02-21T06:16:11;13.43;;;5.47;;
3589;SDS011;1809;48.470;9.226;2024-02-21T06:18:36;13.03;;;6.57;;
3589;SDS011;1809;48.470;9.226;2024-02-21T06:21:03;12.73;;;5.93;;
3589;SDS011;1809;48.470;9.226;2024-02-21T06:23:28;10.83;;;5.73;;
3589;SDS011;1809;48.470;9.226;2024-02-21T06:25:53;13.33;;;7.00;;
3589;SDS011;1809;48.470;9.226;2024-02-21T06:28:19;11.53;;;5.30;;
3589;SDS011;1809;48.470;9.226;2024-02-21T06:30:45;18.80;;;6.40;;
3589;SDS011;1809;48.470;9.226;2024-02-21T06:33:10;14.40;;;7.17;;
3589;SDS011;1809;48.470;9.226;2024-02-21T06:35:36;36.30;;;18.03;;
3589;SDS011;1809;48.470;9.226;2024-02-21T06:38:02;22.83;;;10.80;;
3589;SDS011;1809;48.470;9.226;2024-02-21T06:40:28;32.83;;;11.43;;
3589;SDS011;1809;48.470;9.226;2024-02-21T06:42:53;21.27;;;9.27;;
3589;SDS011;1809;48.470;9.226;2024-02-21T06:45:18;17.13;;;8.53;;
3589;SDS011;1809;48.470;9.226;2024-02-21T06:47:44;12.37;;;7.77;;
3589;SDS011;1809;48.470;9.226;2024-02-21T06:50:09;16.37;;;7.97;;
3589;SDS011;1809;48.470;9.226;2024-02-21T06:52:35;13.63;;;6.77;;
3589;SDS011;1809;48.470;9.226;2024-02-21T06:55:01;8.03;;;5.90;;
3589;SDS011;1809;48.470;9.226;2024-02-21T06:57:28;17.00;;;7.50;;
3589;SDS011;1809;48.470;9.226;2024-02-21T06:59:53;13.60;;;6.50;;
3589;SDS011;1809;48.470;9.226;2024-02-21T07:02:19;18.30;;;7.43;;
3589;SDS011;1809;48.470;9.226;2024-02-21T07:04:44;17.07;;;6.43;;
3589;SDS011;1809;48.470;9.226;2024-02-21T07:07:09;9.10;;;5.63;;
3589;SDS011;1809;48.470;9.226;2024-02-21T07:09:35;10.37;;;5.87;;
3589;SDS011;1809;48.470;9.226;2024-02-21T07:12:01;12.60;;;7.57;;
3589;SDS011;1809;48.470;9.226;2024-02-21T07:14:29;14.07;;;6.50;;
3589;SDS011;1809;48.470;9.226;2024-02-21T07:16:54;8.50;;;5.40;;
3589;SDS011;1809;48.470;9.226;2024-02-21T07:19:22;7.73;;;4.73;;
3589;SDS011;1809;48.470;9.226;2024-02-21T07:21:47;10.17;;;5.10;;
3589;SDS011;1809;48.470;9.226;2024-02-21T07:24:13;10.00;;;4.17;;
3589;SDS011;1809;48.470;9.226;2024-02-21T07:26:41;9.90;;;4.00;;
3589;SDS011;1809;48.470;9.226;2024-02-21T07:29:08;8.00;;;4.30;;
3589;SDS011;1809;48.470;9.226;2024-02-21T07:31:38;8.10;;;4.03;;
3589;SDS011;1809;48.470;9.226;2024-02-21T07:34:05;10.60;;;4.60;;
3589;SDS011;1809;48.470;9.226;2024-02-21T07:36:30;14.23;;;5.87;;
3589;SDS011;1809;48.470;9.226;2024-02-21T07:38:56;9.57;;;5.27;;
3589;SDS011;1809;48.470;9.226;2024-02-21T07:41:21;17.27;;;6.57;;
3589;SDS011;1809;48.470;9.226;2024-02-21T07:43:47;9.63;;;5.30;;
3589;SDS011;1809;48.470;9.226;2024-02-21T07:46:13;10.73;;;5.03;;
3589;SDS011;1809;48.470;9.226;2024-02-21T07:48:39;16.90;;;5.20;;
3589;SDS011;1809;48.470;9.226;2024-02-21T07:51:04;12.40;;;6.33;;
3589;SDS011;1809;48.470;9.226;2024-02-21T07:53:32;15.90;;;5.57;;
3589;SDS011;1809;48.470;9.226;2024-02-21T07:55:58;11.97;;;6.17;;
3589;SDS011;1809;48.470;9.226;2024-02-21T07:58:24;10.30;;;7.50;;
3589;SDS011;1809;48.470;9.226;2024-02-21T08:00:49;20.17;;;8.23;;
3589;SDS011;1809;48.470;9.226;2024-02-21T08:03:15;14.33;;;6.60;;
3589;SDS011;1809;48.470;9.226;2024-02-21T08:05:42;14.20;;;6.10;;
3589;SDS011;1809;48.470;9.226;2024-02-21T08:08:08;13.43;;;5.40;;
3589;SDS011;1809;48.470;9.226;2024-02-21T08:10:33;11.37;;;6.20;;
3589;SDS011;1809;48.470;9.226;2024-02-21T08:12:59;10.20;;;6.10;;
3589;SDS011;1809;48.470;9.226;2024-02-21T08:15:24;7.77;;;5.77;;
3589;SDS011;1809;48.470;9.226;2024-02-21T08:17:53;7.20;;;6.27;;
3589;SDS011;1809;48.470;9.226;2024-02-21T08:20:18;10.00;;;6.83;;
3589;SDS011;1809;48.470;9.226;2024-02-21T08:22:44;11.47;;;5.10;;
3589;SDS011;1809;48.470;9.226;2024-02-21T08:25:09;10.93;;;5.93;;
3589;SDS011;1809;48.470;9.226;2024-02-21T08:27:34;14.23;;;6.17;;
3589;SDS011;1809;48.470;9.226;2024-02-21T08:30:00;8.37;;;5.57;;
3589;SDS011;1809;48.470;9.226;2024-02-21T08:32:25;8.10;;;5.23;;
3589;SDS011;1809;48.470;9.226;2024-02-21T08:34:50;13.13;;;6.87;;
3589;SDS011;1809;48.470;9.226;2024-02-21T08:37:15;9.77;;;6.53;;
3589;SDS011;1809;48.470;9.226;2024-02-21T08:39:41;15.17;;;6.27;;
3589;SDS011;1809;48.470;9.226;2024-02-21T08:42:06;8.57;;;5.67;;
3589;SDS011;1809;48.470;9.226;2024-02-21T08:44:32;8.93;;;5.83;;
3589;SDS011;1809;48.470;9.226;2024-02-21T08:46:57;9.73;;;5.50;;
3589;SDS011;1809;48.470;9.226;2024-02-21T08:49:22;7.90;;;5.00;;
3589;SDS011;1809;48.470;9.226;2024-02-21T08:51:48;11.90;;;4.63;;
3589;SDS011;1809;48.470;9.226;2024-02-21T08:54:13;12.77;;;4.77;;
3589;SDS011;1809;48.470;9.226;2024-02-21T08:56:38;6.77;;;2.87;;
3589;SDS011;1809;48.470;9.226;2024-02-21T08:59:04;9.77;;;4.50;;
3589;SDS011;1809;48.470;9.226;2024-02-21T09:01:29;12.00;;;5.63;;
3589;SDS011;1809;48.470;9.226;2024-02-21T09:03:54;10.73;;;5.10;;
3589;SDS011;1809;48.470;9.226;2024-02-21T09:06:21;8.23;;;5.10;;
3589;SDS011;1809;48.470;9.226;2024-02-21T09:08:47;7.80;;;4.30;;
3589;SDS011;1809;48.470;9.226;2024-02-21T09:11:12;3.77;;;3.20;;
3589;SDS011;1809;48.470;9.226;2024-02-21T09:13:37;10.73;;;2.93;;
3589;SDS011;1809;48.470;9.226;2024-02-21T09:16:03;9.67;;;3.90;;
3589;SDS011;1809;48.470;9.226;2024-02-21T09:18:29;6.17;;;3.33;;
3589;SDS011;1809;48.470;9.226;2024-02-21T09:20:54;11.93;;;3.33;;
3589;SDS011;1809;48.470;9.226;2024-02-21T09:23:20;7.10;;;2.90;;
3589;SDS011;1809;48.470;9.226;2024-02-21T09:25:45;7.80;;;2.93;;
3589;SDS011;1809;48.470;9.226;2024-02-21T09:28:11;14.17;;;3.60;;
3589;SDS011;1809;48.470;9.226;2024-02-21T09:30:38;6.50;;;3.20;;
3589;SDS011;1809;48.470;9.226;2024-02-21T09:33:03;13.20;;;4.13;;
3589;SDS011;1809;48.470;9.226;2024-02-21T09:35:30;5.63;;;3.50;;
3589;SDS011;1809;48.470;9.226;2024-02-21T09:37:55;5.20;;;3.73;;
3589;SDS011;1809;48.470;9.226;2024-02-21T09:40:21;9.73;;;4.00;;
3589;SDS011;1809;48.470;9.226;2024-02-21T09:42:47;3.70;;;3.40;;
3589;SDS011;1809;48.470;9.226;2024-02-21T09:45:20;10.57;;;3.40;;
3589;SDS011;1809;48.470;9.226;2024-02-21T09:50:36;13.73;;;3.60;;
3589;SDS011;1809;48.470;9.226;2024-02-21T09:53:05;4.80;;;3.70;;
3589;SDS011;1809;48.470;9.226;2024-02-21T09:55:33;7.43;;;3.57;;
3589;SDS011;1809;48.470;9.226;2024-02-21T09:57:59;10.27;;;4.20;;
3589;SDS011;1809;48.470;9.226;2024-02-21T10:00:26;4.20;;;3.60;;
3589;SDS011;1809;48.470;9.226;2024-02-21T10:02:52;4.70;;;3.80;;
3589;SDS011;1809;48.470;9.226;2024-02-21T10:05:18;6.03;;;3.33;;
3589;SDS011;1809;48.470;9.226;2024-02-21T10:07:44;8.87;;;4.30;;
3589;SDS011;1809;48.470;9.226;2024-02-21T10:10:09;8.47;;;3.90;;
3589;SDS011;1809;48.470;9.226;2024-02-21T10:12:35;8.47;;;4.10;;
3589;SDS011;1809;48.470;9.226;2024-02-21T10:15:03;7.10;;;3.70;;
3589;SDS011;1809;48.470;9.226;2024-02-21T10:17:30;7.33;;;3.63;;
3589;SDS011;1809;48.470;9.226;2024-02-21T10:19:55;15.53;;;5.03;;
3589;SDS011;1809;48.470;9.226;2024-02-21T10:22:31;17.43;;;4.70;;
3589;SDS011;1809;48.470;9.226;2024-02-21T10:25:06;9.37;;;5.23;;
3589;SDS011;1809;48.470;9.226;2024-02-21T10:27:32;7.60;;;4.13;;
3589;SDS011;1809;48.470;9.226;2024-02-21T10:29:58;10.17;;;4.90;;
3589;SDS011;1809;48.470;9.226;2024-02-21T10:32:23;6.40;;;4.30;;
3589;SDS011;1809;48.470;9.226;2024-02-21T10:35:00;6.90;;;4.10;;
3589;SDS011;1809;48.470;9.226;2024-02-21T10:37:26;9.90;;;4.00;;
3589;SDS011;1809;48.470;9.226;2024-02-21T10:39:51;7.03;;;3.23;;
3589;SDS011;1809;48.470;9.226;2024-02-21T10:42:18;8.00;;;4.33;;
3589;SDS011;1809;48.470;9.226;2024-02-21T10:44:46;11.93;;;5.00;;
3589;SDS011;1809;48.470;9.226;2024-02-21T10:47:16;7.97;;;4.50;;
3589;SDS011;1809;48.470;9.226;2024-02-21T10:49:46;7.13;;;4.50;;
3589;SDS011;1809;48.470;9.226;2024-02-21T10:57:22;6.57;;;3.87;;
3589;SDS011;1809;48.470;9.226;2024-02-21T10:59:48;10.37;;;5.00;;
3589;SDS011;1809;48.470;9.226;2024-02-21T11:02:14;9.43;;;5.47;;
3589;SDS011;1809;48.470;9.226;2024-02-21T11:04:40;8.23;;;4.90;;
3589;SDS011;1809;48.470;9.226;2024-02-21T11:07:06;8.20;;;4.67;;
3589;SDS011;1809;48.470;9.226;2024-02-21T11:09:33;10.63;;;4.40;;
3589;SDS011;1809;48.470;9.226;2024-02-21T11:12:01;4.10;;;3.70;;
3589;SDS011;1809;48.470;9.226;2024-02-21T11:14:30;12.30;;;4.40;;
3589;SDS011;1809;48.470;9.226;2024-02-21T11:17:14;8.10;;;4.53;;
3589;SDS011;1809;48.470;9.226;2024-02-21T11:19:41;10.13;;;5.00;;
3589;SDS011;1809;48.470;9.226;2024-02-21T11:22:13;7.53;;;3.20;;
3589;SDS011;1809;48.470;9.226;2024-02-21T11:24:39;7.63;;;4.10;;
3589;SDS011;1809;48.470;9.226;2024-02-21T11:27:08;5.87;;;3.57;;
3589;SDS011;1809;48.470;9.226;2024-02-21T11:32:10;7.27;;;4.60;;
3589;SDS011;1809;48.470;9.226;2024-02-21T11:37:33;6.47;;;3.50;;
3589;SDS011;1809;48.470;9.226;2024-02-21T11:40:01;5.50;;;4.60;;
3589;SDS011;1809;48.470;9.226;2024-02-21T11:42:28;7.10;;;3.80;;
3589;SDS011;1809;48.470;9.226;2024-02-21T11:44:54;12.53;;;5.33;;
3589;SDS011;1809;48.470;9.226;2024-02-21T11:47:22;7.07;;;4.33;;
3589;SDS011;1809;48.470;9.226;2024-02-21T11:49:48;8.60;;;5.27;;
3589;SDS011;1809;48.470;9.226;2024-02-21T11:52:23;4.20;;;2.83;;
3589;SDS011;1809;48.470;9.226;2024-02-21T11:54:50;6.67;;;3.00;;
3589;SDS011;1809;48.470;9.226;2024-02-21T11:57:15;6.60;;;3.30;;
3589;SDS011;1809;48.470;9.226;2024-02-21T11:59:42;6.60;;;4.00;;
3589;SDS011;1809;48.470;9.226;2024-02-21T12:02:09;7.00;;;3.13;;
3589;SDS011;1809;48.470;9.226;2024-02-21T12:04:35;7.27;;;3.63;;
3589;SDS011;1809;48.470;9.226;2024-02-21T12:07:01;4.57;;;3.20;;
3589;SDS011;1809;48.470;9.226;2024-02-21T12:09:28;7.93;;;3.80;;
3589;SDS011;1809;48.470;9.226;2024-02-21T12:12:03;6.10;;;3.80;;
3589;SDS011;1809;48.470;9.226;2024-02-21T12:14:30;3.60;;;3.30;;
3589;SDS011;1809;48.470;9.226;2024-02-21T12:16:57;8.07;;;3.80;;
3589;SDS011;1809;48.470;9.226;2024-02-21T12:19:23;8.03;;;2.83;;
3589;SDS011;1809;48.470;9.226;2024-02-21T12:21:48;3.63;;;2.20;;
3589;SDS011;1809;48.470;9.226;2024-02-21T12:24:24;3.73;;;2.40;;
3589;SDS011;1809;48.470;9.226;2024-02-21T12:26:53;2.13;;;1.80;;
3589;SDS011;1809;48.470;9.226;2024-02-21T12:29:23;4.60;;;2.77;;
3589;SDS011;1809;48.470;9.226;2024-02-21T12:31:52;2.30;;;1.70;;
3589;SDS011;1809;48.470;9.226;2024-02-21T12:34:19;7.60;;;2.63;;
3589;SDS011;1809;48.470;9.226;2024-02-21T12:36:45;2.70;;;2.10;;
3589;SDS011;1809;48.470;9.226;2024-02-21T12:39:13;3.70;;;2.23;;
3589;SDS011;1809;48.470;9.226;2024-02-21T12:41:39;10.33;;;3.40;;
3589;SDS011;1809;48.470;9.226;2024-02-21T12:44:05;15.80;;;3.00;;
3589;SDS011;1809;48.470;9.226;2024-02-21T12:46:32;3.60;;;2.57;;
3589;SDS011;1809;48.470;9.226;2024-02-21T12:48:58;7.30;;;2.53;;
3589;SDS011;1809;48.470;9.226;2024-02-21T12:51:23;3.10;;;2.80;;
3589;SDS011;1809;48.470;9.226;2024-02-21T12:53:49;2.30;;;2.10;;
3589;SDS011;1809;48.470;9.226;2024-02-21T12:56:15;2.83;;;2.10;;
3589;SDS011;1809;48.470;9.226;2024-02-21T12:58:40;5.53;;;3.13;;
3589;SDS011;1809;48.470;9.226;2024-02-21T13:01:06;6.53;;;2.30;;
3589;SDS011;1809;48.470;9.226;2024-02-21T13:03:31;8.67;;;2.90;;
3589;SDS011;1809;48.470;9.226;2024-02-21T13:05:56;6.43;;;2.50;;
3589;SDS011;1809;48.470;9.226;2024-02-21T13:08:24;15.23;;;3.30;;
3589;SDS011;1809;48.470;9.226;2024-02-21T13:10:49;15.07;;;3.53;;
3589;SDS011;1809;48.470;9.226;2024-02-21T13:13:15;7.47;;;3.57;;
3589;SDS011;1809;48.470;9.226;2024-02-21T13:15:40;3.43;;;2.60;;
3589;SDS011;1809;48.470;9.226;2024-02-21T13:18:08;3.60;;;2.73;;
3589;SDS011;1809;48.470;9.226;2024-02-21T13:20:33;6.33;;;2.67;;
3589;SDS011;1809;48.470;9.226;2024-02-21T13:22:59;10.43;;;3.83;;
3589;SDS011;1809;48.470;9.226;2024-02-21T13:25:24;8.23;;;3.37;;
3589;SDS011;1809;48.470;9.226;2024-02-21T13:27:49;3.80;;;2.47;;
3589;SDS011;1809;48.470;9.226;2024-02-21T13:30:15;2.73;;;2.43;;
3589;SDS011;1809;48.470;9.226;2024-02-21T13:32:44;11.40;;;2.63;;
3589;SDS011;1809;48.470;9.226;2024-02-21T13:35:11;3.43;;;2.30;;
3589;SDS011;1809;48.470;9.226;2024-02-21T13:37:40;1.90;;;1.80;;
3589;SDS011;1809;48.470;9.226;2024-02-21T13:40:07;3.93;;;2.20;;
3589;SDS011;1809;48.470;9.226;2024-02-21T13:42:38;3.50;;;2.60;;
3589;SDS011;1809;48.470;9.226;2024-02-21T13:45:04;7.10;;;3.10;;
3589;SDS011;1809;48.470;9.226;2024-02-21T13:47:31;3.57;;;3.27;;
3589;SDS011;1809;48.470;9.226;2024-02-21T13:49:57;4.93;;;2.80;;
3589;SDS011;1809;48.470;9.226;2024-02-21T13:52:22;4.50;;;4.10;;
3589;SDS011;1809;48.470;9.226;2024-02-21T13:54:51;10.70;;;6.90;;
3589;SDS011;1809;48.470;9.226;2024-02-21T13:57:16;8.43;;;3.93;;
3589;SDS011;1809;48.470;9.226;2024-02-21T13:59:41;14.93;;;2.20;;
3589;SDS011;1809;48.470;9.226;2024-02-21T14:02:07;4.07;;;2.50;;
3589;SDS011;1809;48.470;9.226;2024-02-21T14:04:33;7.33;;;2.73;;
3589;SDS011;1809;48.470;9.226;2024-02-21T14:06:59;7.03;;;2.77;;
3589;SDS011;1809;48.470;9.226;2024-02-21T14:09:25;7.10;;;3.70;;
3589;SDS011;1809;48.470;9.226;2024-02-21T14:11:51;5.17;;;2.90;;
3589;SDS011;1809;48.470;9.226;2024-02-21T14:14:16;2.50;;;2.00;;
3589;SDS011;1809;48.470;9.226;2024-02-21T14:16:41;5.07;;;3.03;;
3589;SDS011;1809;48.470;9.226;2024-02-21T14:19:07;8.00;;;2.50;;
3589;SDS011;1809;48.470;9.226;2024-02-21T14:21:33;4.50;;;2.37;;
3589;SDS011;1809;48.470;9.226;2024-02-21T14:24:02;3.10;;;2.50;;
3589;SDS011;1809;48.470;9.226;2024-02-21T14:26:28;4.27;;;1.90;;
3589;SDS011;1809;48.470;9.226;2024-02-21T14:28:56;9.30;;;3.17;;
3589;SDS011;1809;48.470;9.226;2024-02-21T14:31:22;3.73;;;2.60;;
3589;SDS011;1809;48.470;9.226;2024-02-21T14:33:47;4.43;;;2.40;;
3589;SDS011;1809;48.470;9.226;2024-02-21T14:36:13;2.03;;;1.83;;
3589;SDS011;1809;48.470;9.226;2024-02-21T14:38:40;7.17;;;2.70;;
3589;SDS011;1809;48.470;9.226;2024-02-21T14:41:06;3.47;;;2.33;;
3589;SDS011;1809;48.470;9.226;2024-02-21T14:43:31;6.27;;;2.70;;
3589;SDS011;1809;48.470;9.226;2024-02-21T14:45:57;5.90;;;2.33;;
3589;SDS011;1809;48.470;9.226;2024-02-21T14:48:22;2.60;;;2.37;;
3589;SDS011;1809;48.470;9.226;2024-02-21T14:50:47;3.43;;;2.10;;
3589;SDS011;1809;48.470;9.226;2024-02-21T14:53:13;9.07;;;2.83;;
3589;SDS011;1809;48.470;9.226;2024-02-21T14:55:38;5.17;;;3.07;;
3589;SDS011;1809;48.470;9.226;2024-02-21T14:58:05;4.10;;;2.90;;
3589;SDS011;1809;48.470;9.226;2024-02-21T15:00:32;3.40;;;2.20;;
3589;SDS011;1809;48.470;9.226;2024-02-21T15:02:57;5.90;;;3.00;;
3589;SDS011;1809;48.470;9.226;2024-02-21T15:05:23;5.87;;;2.80;;
3589;SDS011;1809;48.470;9.226;2024-02-21T15:07:49;5.20;;;3.40;;
3589;SDS011;1809;48.470;9.226;2024-02-21T15:10:15;5.00;;;3.10;;
3589;SDS011;1809;48.470;9.226;2024-02-21T15:12:40;9.67;;;2.87;;
3589;SDS011;1809;48.470;9.226;2024-02-21T15:15:06;5.83;;;2.73;;
3589;SDS011;1809;48.470;9.226;2024-02-21T15:17:33;5.13;;;2.43;;